createdAt,value
2023-03-08T00:02:40.877Z,2.10
2023-03-08T00:05:43.827Z,2.23
2023-03-08T00:08:48.552Z,1.30
2023-03-08T00:11:50.763Z,1.60
2023-03-08T00:14:52.899Z,1.02
2023-03-08T00:17:55.022Z,1.63
2023-03-08T00:21:11.933Z,1.63
2023-03-08T00:24:16.914Z,1.63
2023-03-08T00:27:21.731Z,1.20
2023-03-08T00:30:23.984Z,1.80
2023-03-08T00:33:26.808Z,1.70
2023-03-08T00:36:30.159Z,0.53
2023-03-08T00:39:32.323Z,0.67
2023-03-08T00:42:34.642Z,1.37
2023-03-08T00:45:36.947Z,1.53
2023-03-08T00:48:39.348Z,0.93
2023-03-08T00:51:41.513Z,0.60
2023-03-08T00:54:43.704Z,1.37
2023-03-08T00:57:45.841Z,1.30
2023-03-08T01:00:48.747Z,2.97
2023-03-08T01:03:51.015Z,2.27
2023-03-08T01:06:53.540Z,2.10
2023-03-08T01:09:56.447Z,3.20
2023-03-08T01:12:58.636Z,1.60
2023-03-08T01:16:01.828Z,2.83
2023-03-08T01:19:05.536Z,3.07
2023-03-08T01:22:07.715Z,3.00
2023-03-08T01:25:10.480Z,1.80
2023-03-08T01:28:12.646Z,2.00
2023-03-08T01:31:23.212Z,1.00
2023-03-08T01:34:25.467Z,1.07
2023-03-08T01:37:27.630Z,0.83
2023-03-08T01:40:29.782Z,1.93
2023-03-08T01:43:35.072Z,2.30
2023-03-08T01:46:37.501Z,1.70
2023-03-08T01:49:39.710Z,1.50
2023-03-08T01:52:54.006Z,2.00
2023-03-08T01:55:57.004Z,2.50
2023-03-08T01:59:00.600Z,2.57
2023-03-08T02:02:03.334Z,1.90
2023-03-08T02:05:06.192Z,2.73
2023-03-08T02:08:08.411Z,2.20
2023-03-08T02:11:12.482Z,1.83
2023-03-08T02:14:14.725Z,2.88
2023-03-08T02:17:16.897Z,2.60
2023-03-08T02:20:31.484Z,2.07
2023-03-08T02:23:33.610Z,1.67
2023-03-08T02:26:38.192Z,1.50
2023-03-08T02:29:40.713Z,1.17
2023-03-08T02:32:43.071Z,1.20
2023-03-08T02:35:45.919Z,1.07
2023-03-08T02:38:48.028Z,1.60
2023-03-08T02:41:50.207Z,0.90
2023-03-08T02:44:52.299Z,0.97
2023-03-08T02:47:54.425Z,1.50
2023-03-08T02:50:56.564Z,1.53
2023-03-08T02:53:58.757Z,1.83
2023-03-08T02:57:00.868Z,1.30
2023-03-08T03:00:03.972Z,2.27
2023-03-08T03:03:06.216Z,1.20
2023-03-08T03:06:20.588Z,2.87
2023-03-08T03:09:22.781Z,2.00
2023-03-08T03:12:24.894Z,1.33
2023-03-08T03:15:27.058Z,1.40
2023-03-08T03:18:29.182Z,2.03
2023-03-08T03:21:31.563Z,2.20
2023-03-08T03:24:35.408Z,3.23
2023-03-08T03:27:39.013Z,2.27
2023-03-08T03:30:41.110Z,2.50
2023-03-08T03:33:43.619Z,2.67
2023-03-08T03:36:45.808Z,2.67
2023-03-08T03:39:47.945Z,3.03
2023-03-08T03:42:50.173Z,2.30
2023-03-08T03:46:00.481Z,3.10
2023-03-08T03:49:02.826Z,4.07
2023-03-08T03:52:05.241Z,3.97
2023-03-08T03:55:08.274Z,3.97
2023-03-08T03:58:10.381Z,4.73
2023-03-08T04:01:19.065Z,4.60
2023-03-08T04:04:21.855Z,4.37
2023-03-08T04:07:24.091Z,3.20
2023-03-08T04:10:26.263Z,3.80
2023-03-08T04:13:31.548Z,4.33
2023-03-08T04:16:36.796Z,3.27
2023-03-08T04:19:39.074Z,4.00
2023-03-08T04:22:41.182Z,4.77
2023-03-08T04:25:43.284Z,3.70
2023-03-08T04:28:45.852Z,3.33
2023-03-08T04:31:48.004Z,3.87
2023-03-08T04:34:50.186Z,5.23
2023-03-08T04:37:52.249Z,4.37
2023-03-08T04:41:05.706Z,4.47
2023-03-08T04:44:08.010Z,6.00
2023-03-08T04:47:10.788Z,4.23
2023-03-08T04:50:13.379Z,4.97
2023-03-08T04:53:15.476Z,4.07
2023-03-08T04:56:18.163Z,3.77
2023-03-08T04:59:20.459Z,5.00
2023-03-08T05:02:23.507Z,4.20
2023-03-08T05:05:25.766Z,3.73
2023-03-08T05:08:27.981Z,2.80
2023-03-08T05:11:30.430Z,4.40
2023-03-08T05:14:32.555Z,4.40
2023-03-08T05:17:34.662Z,4.00
2023-03-08T05:20:36.806Z,4.23
2023-03-08T05:23:38.982Z,4.07
2023-03-08T05:26:41.088Z,4.43
2023-03-08T05:29:43.349Z,3.70
2023-03-08T05:32:45.681Z,4.70
2023-03-08T05:35:53.670Z,4.13
2023-03-08T05:38:56.008Z,3.13
2023-03-08T05:41:58.480Z,3.70
2023-03-08T05:45:00.611Z,4.77
2023-03-08T05:48:02.726Z,4.23
2023-03-08T05:51:07.361Z,4.17
2023-03-08T05:54:09.517Z,6.47
2023-03-08T05:57:11.716Z,3.60
2023-03-08T06:00:14.546Z,3.63
2023-03-08T06:03:16.658Z,3.23
2023-03-08T06:06:20.563Z,5.17
2023-03-08T06:09:22.651Z,5.45
2023-03-08T06:12:24.900Z,4.67
2023-03-08T06:15:27.102Z,3.50
2023-03-08T06:18:29.808Z,5.97
2023-03-08T06:21:31.896Z,3.63
2023-03-08T06:24:34.066Z,4.17
2023-03-08T06:27:36.246Z,4.20
2023-03-08T06:30:38.404Z,4.03
2023-03-08T06:33:41.437Z,4.03
2023-03-08T06:36:43.890Z,4.73
2023-03-08T06:39:46.105Z,3.70
2023-03-08T06:42:48.609Z,4.67
2023-03-08T06:45:50.772Z,3.23
2023-03-08T06:48:54.244Z,2.93
2023-03-08T06:51:56.398Z,4.87
2023-03-08T06:54:58.552Z,4.67
2023-03-08T06:58:00.643Z,4.80
2023-03-08T07:01:05.883Z,4.70
2023-03-08T07:04:09.579Z,4.17
2023-03-08T07:07:18.172Z,4.73
2023-03-08T07:10:21.460Z,5.20
2023-03-08T07:13:24.024Z,4.17
2023-03-08T07:16:26.172Z,4.00
2023-03-08T07:19:29.324Z,5.60
2023-03-08T07:22:31.898Z,6.77
2023-03-08T07:25:34.125Z,4.70
2023-03-08T07:28:36.441Z,4.77
2023-03-08T07:31:39.756Z,5.07
2023-03-08T07:34:42.139Z,7.13
2023-03-08T07:38:09.272Z,4.97
2023-03-08T07:41:11.771Z,5.53
2023-03-08T07:44:14.437Z,5.10
2023-03-08T07:47:18.382Z,4.82
2023-03-08T07:50:21.797Z,5.23
2023-03-08T07:53:30.484Z,6.37
2023-03-08T07:56:32.659Z,6.30
2023-03-08T07:59:34.909Z,6.20
2023-03-08T08:02:37.519Z,6.57
2023-03-08T08:05:39.864Z,7.13
2023-03-08T08:08:44.918Z,7.53
2023-03-08T08:11:47.129Z,4.97
2023-03-08T08:14:52.869Z,8.00
2023-03-08T08:17:59.863Z,5.63
2023-03-08T08:21:08.378Z,5.70
2023-03-08T08:24:10.625Z,6.57
2023-03-08T08:27:15.136Z,4.57
2023-03-08T08:33:20.667Z,5.03
2023-03-08T08:36:23.762Z,4.50
2023-03-08T08:39:26.310Z,3.80
2023-03-08T08:42:28.805Z,10.10
2023-03-08T08:45:30.984Z,6.20
2023-03-08T08:48:34.206Z,6.80
2023-03-08T08:51:36.354Z,4.03
2023-03-08T08:54:40.167Z,5.43
2023-03-08T08:57:42.574Z,5.22
2023-03-08T09:00:45.148Z,4.23
2023-03-08T09:03:48.185Z,5.25
2023-03-08T09:06:50.463Z,5.45
2023-03-08T09:09:55.288Z,6.05
2023-03-08T09:13:00.419Z,7.30
2023-03-08T09:16:02.896Z,5.63
2023-03-08T09:19:06.421Z,5.63
2023-03-08T09:22:08.678Z,4.43
2023-03-08T09:25:12.578Z,4.13
2023-03-08T09:28:14.756Z,6.28
2023-03-08T09:31:19.536Z,4.70
2023-03-08T09:34:22.014Z,5.88
2023-03-08T09:37:24.538Z,5.20
2023-03-08T09:40:27.604Z,6.25
2023-03-08T09:43:45.581Z,4.20
2023-03-08T09:46:54.185Z,7.13
2023-03-08T09:50:20.012Z,32.08
2023-03-08T09:53:27.065Z,5.95
2023-03-08T09:56:32.013Z,4.25
2023-03-08T09:59:59.535Z,6.03
2023-03-08T10:03:30.810Z,5.63
2023-03-08T10:06:54.454Z,5.70
2023-03-08T10:10:50.925Z,5.53
2023-03-08T10:14:36.110Z,5.32
2023-03-08T10:17:50.394Z,4.53
2023-03-08T10:20:53.581Z,5.30
2023-03-08T10:24:27.225Z,4.70
2023-03-08T10:27:34.944Z,4.70
2023-03-08T10:30:48.340Z,6.13
2023-03-08T10:34:01.168Z,6.88
2023-03-08T10:37:07.456Z,5.05
2023-03-08T10:40:18.901Z,5.22
2023-03-08T10:43:36.497Z,5.32
2023-03-08T10:46:47.493Z,4.85
2023-03-08T10:50:06.509Z,6.85
2023-03-08T10:53:20.372Z,6.72
2023-03-08T10:56:38.063Z,5.05
2023-03-08T10:59:41.315Z,5.53
2023-03-08T11:02:43.456Z,3.92
2023-03-08T11:06:03.744Z,5.20
2023-03-08T11:09:27.949Z,4.45
2023-03-08T11:12:30.108Z,4.22
2023-03-08T11:15:36.238Z,4.68
2023-03-08T11:19:03.291Z,5.88
2023-03-08T11:22:08.558Z,3.42
2023-03-08T11:25:28.917Z,3.35
2023-03-08T11:28:49.336Z,4.85
2023-03-08T11:32:15.999Z,3.45
2023-03-08T11:35:56.705Z,6.78
2023-03-08T11:39:17.207Z,3.70
2023-03-08T11:42:37.170Z,5.22
2023-03-08T11:45:58.133Z,4.97
2023-03-08T11:49:15.706Z,3.50
2023-03-08T11:52:51.521Z,5.07
2023-03-08T11:56:18.105Z,4.78
2023-03-08T11:59:29.184Z,4.38
2023-03-08T12:02:37.580Z,4.13
2023-03-08T12:06:03.183Z,4.72
2023-03-08T12:09:13.477Z,4.45
2023-03-08T12:12:27.158Z,5.32
2023-03-08T12:15:37.739Z,3.47
2023-03-08T12:19:07.398Z,5.63
2023-03-08T12:22:41.818Z,4.18
2023-03-08T12:25:48.450Z,4.20
2023-03-08T12:28:58.712Z,4.30
2023-03-08T12:32:01.990Z,9.13
2023-03-08T12:35:25.293Z,4.43
2023-03-08T12:38:41.220Z,6.28
2023-03-08T12:41:43.533Z,5.55
2023-03-08T12:44:46.003Z,4.10
2023-03-08T12:48:06.482Z,4.90
2023-03-08T12:51:17.097Z,5.85
2023-03-08T12:54:23.646Z,4.40
2023-03-08T12:57:43.105Z,4.97
2023-03-08T13:00:45.427Z,5.05
2023-03-08T13:03:47.728Z,5.78
2023-03-08T13:07:11.213Z,5.57
2023-03-08T13:10:27.489Z,5.28
2023-03-08T13:13:57.407Z,5.03
2023-03-08T13:16:59.715Z,5.85
2023-03-08T13:20:24.414Z,6.07
2023-03-08T13:23:35.936Z,4.57
2023-03-08T13:26:57.495Z,5.18
2023-03-08T13:30:14.814Z,6.30
2023-03-08T13:33:24.679Z,5.60
2023-03-08T13:36:31.710Z,5.45
2023-03-08T13:39:33.904Z,5.05
2023-03-08T13:42:36.330Z,4.97
2023-03-08T13:45:38.643Z,5.40
2023-03-08T13:48:44.493Z,6.18
2023-03-08T13:51:50.168Z,5.80
2023-03-08T13:54:54.828Z,5.78
2023-03-08T13:57:57.640Z,6.97
2023-03-08T14:01:22.674Z,6.45
2023-03-08T14:04:35.315Z,4.28
2023-03-08T14:07:37.567Z,4.82
2023-03-08T14:10:49.321Z,5.50
2023-03-08T14:13:54.198Z,5.30
2023-03-08T14:16:57.002Z,5.85
2023-03-08T14:20:02.225Z,5.43
2023-03-08T14:23:04.569Z,4.82
2023-03-08T14:26:07.239Z,5.82
2023-03-08T14:29:27.602Z,5.93
2023-03-08T14:32:32.720Z,5.38
2023-03-08T14:35:41.569Z,5.57
2023-03-08T14:38:49.359Z,7.97
2023-03-08T14:41:52.010Z,6.97
2023-03-08T14:44:58.431Z,4.75
2023-03-08T14:48:14.956Z,5.43
2023-03-08T14:51:20.137Z,6.93
2023-03-08T14:54:40.105Z,5.28
2023-03-08T14:57:42.882Z,6.28
2023-03-08T15:00:53.076Z,8.60
2023-03-08T15:03:55.530Z,5.75
2023-03-08T15:06:58.149Z,5.68
2023-03-08T15:10:03.113Z,7.50
2023-03-08T15:13:10.293Z,6.32
2023-03-08T15:16:14.538Z,6.25
2023-03-08T15:22:19.289Z,7.05
2023-03-08T15:25:25.951Z,10.98
2023-03-08T15:28:30.050Z,11.50
2023-03-08T15:31:32.898Z,8.48
2023-03-08T15:34:35.458Z,7.65
2023-03-08T15:37:37.731Z,7.45
2023-03-08T15:40:40.342Z,5.95
2023-03-08T15:43:42.836Z,6.68
2023-03-08T15:46:45.089Z,6.20
2023-03-08T15:49:51.428Z,7.18
2023-03-08T15:52:54.756Z,7.05
2023-03-08T15:55:57.927Z,8.80
2023-03-08T15:59:00.189Z,7.88
2023-03-08T16:02:02.614Z,10.38
2023-03-08T16:05:08.047Z,6.50
2023-03-08T16:08:10.322Z,7.32
2023-03-08T16:11:15.399Z,7.80
2023-03-08T16:14:18.865Z,7.97
2023-03-08T16:17:21.325Z,8.35
2023-03-08T16:20:23.546Z,7.45
2023-03-08T16:23:25.956Z,8.75
2023-03-08T16:26:28.277Z,7.95
2023-03-08T16:29:31.744Z,8.00
2023-03-08T16:32:34.183Z,6.70
2023-03-08T16:35:36.417Z,8.68
2023-03-08T16:38:38.702Z,9.75
2023-03-08T16:41:41.418Z,9.93
2023-03-08T16:44:50.779Z,9.55
2023-03-08T16:47:53.006Z,9.70
2023-03-08T16:50:57.769Z,8.45
2023-03-08T16:54:02.208Z,9.75
2023-03-08T16:57:18.304Z,13.82
2023-03-08T17:00:21.849Z,8.80
2023-03-08T17:03:24.183Z,15.60
2023-03-08T17:06:30.303Z,14.10
2023-03-08T17:09:32.740Z,8.32
2023-03-08T17:12:35.054Z,8.73
2023-03-08T17:15:47.096Z,7.93
2023-03-08T17:18:50.981Z,8.73
2023-03-08T17:21:53.647Z,10.32
2023-03-08T17:24:55.859Z,9.88
2023-03-08T17:27:58.022Z,9.60
2023-03-08T17:31:00.239Z,7.97
2023-03-08T17:34:02.445Z,10.23
2023-03-08T17:37:04.771Z,9.70
2023-03-08T17:40:11.566Z,9.00
2023-03-08T17:43:14.331Z,8.85
2023-03-08T17:46:19.383Z,10.48
2023-03-08T17:49:25.137Z,7.82
2023-03-08T17:52:27.470Z,12.13
2023-03-08T17:55:29.678Z,11.35
2023-03-08T17:58:31.859Z,8.73
2023-03-08T18:01:34.119Z,11.63
2023-03-08T18:04:37.226Z,10.35
2023-03-08T18:07:41.830Z,8.48
2023-03-08T18:10:44.515Z,9.32
2023-03-08T18:13:46.695Z,8.20
2023-03-08T18:16:48.831Z,14.98
2023-03-08T18:19:51.295Z,8.52
2023-03-08T18:22:53.595Z,10.50
2023-03-08T18:25:58.119Z,8.75
2023-03-08T18:29:00.323Z,10.38
2023-03-08T18:32:03.539Z,9.90
2023-03-08T18:35:07.857Z,8.48
2023-03-08T18:38:10.014Z,8.25
2023-03-08T18:41:18.130Z,9.45
2023-03-08T18:44:20.328Z,11.02
2023-03-08T18:47:22.490Z,10.82
2023-03-08T18:50:25.335Z,9.38
2023-03-08T18:53:27.536Z,13.38
2023-03-08T18:56:30.204Z,10.95
2023-03-08T18:59:36.891Z,11.27
2023-03-08T19:02:40.324Z,12.65
2023-03-08T19:05:42.597Z,13.75
2023-03-08T19:08:46.651Z,13.35
2023-03-08T19:11:49.029Z,11.30
2023-03-08T19:14:52.552Z,12.30
2023-03-08T19:17:56.661Z,9.87
2023-03-08T19:20:58.869Z,11.18
2023-03-08T19:24:01.582Z,13.30
2023-03-08T19:27:05.266Z,11.95
2023-03-08T19:30:08.383Z,9.88
2023-03-08T19:33:18.428Z,13.32
2023-03-08T19:36:27.022Z,13.10
2023-03-08T19:39:32.714Z,14.10
2023-03-08T19:42:34.943Z,12.93
2023-03-08T19:45:37.154Z,11.73
2023-03-08T19:48:39.305Z,13.68
2023-03-08T19:51:41.562Z,10.98
2023-03-08T19:54:44.657Z,12.35
2023-03-08T19:57:46.749Z,12.65
2023-03-08T20:00:49.146Z,10.80
2023-03-08T20:03:51.830Z,10.88
2023-03-08T20:06:54.287Z,11.52
2023-03-08T20:09:58.917Z,11.88
2023-03-08T20:13:06.865Z,13.43
2023-03-08T20:16:09.051Z,10.57
2023-03-08T20:19:11.347Z,10.82
2023-03-08T20:22:13.475Z,11.43
2023-03-08T20:25:15.786Z,10.48
2023-03-08T20:28:18.585Z,9.77
2023-03-08T20:31:20.960Z,11.02
2023-03-08T20:34:23.553Z,10.85
2023-03-08T20:37:25.762Z,11.52
2023-03-08T20:40:28.002Z,11.45
2023-03-08T20:43:31.703Z,14.52
2023-03-08T20:46:34.698Z,10.30
2023-03-08T20:49:36.957Z,12.73
2023-03-08T20:52:39.149Z,12.82
2023-03-08T20:55:42.022Z,12.50
2023-03-08T20:58:44.312Z,13.05
2023-03-08T21:01:47.088Z,11.02
2023-03-08T21:04:49.258Z,10.63
2023-03-08T21:07:51.580Z,11.02
2023-03-08T21:10:58.791Z,12.43
2023-03-08T21:14:00.969Z,12.00
2023-03-08T21:17:03.051Z,10.98
2023-03-08T21:20:06.403Z,10.98
2023-03-08T21:23:08.530Z,12.57
2023-03-08T21:26:12.039Z,10.80
2023-03-08T21:29:18.153Z,10.35
2023-03-08T21:32:20.296Z,11.25
2023-03-08T21:35:23.925Z,13.27
2023-03-08T21:38:26.088Z,10.18
2023-03-08T21:41:31.264Z,11.98
2023-03-08T21:44:33.464Z,11.02
2023-03-08T21:47:37.398Z,12.57
2023-03-08T21:50:40.470Z,13.70
2023-03-08T21:53:43.834Z,11.18
2023-03-08T21:56:46.293Z,11.32
2023-03-08T21:59:48.578Z,11.32
2023-03-08T22:02:54.437Z,11.52
2023-03-08T22:05:57.781Z,9.98
2023-03-08T22:09:00.091Z,11.45
2023-03-08T22:12:02.462Z,9.73
2023-03-08T22:15:12.950Z,13.13
2023-03-08T22:18:15.395Z,11.60
2023-03-08T22:21:20.825Z,15.82
2023-03-08T22:24:22.992Z,10.20
2023-03-08T22:27:28.238Z,11.50
2023-03-08T22:30:30.600Z,11.35
2023-03-08T22:33:33.022Z,9.57
2023-03-08T22:36:35.414Z,10.75
2023-03-08T22:39:38.952Z,9.50
2023-03-08T22:42:41.498Z,9.65
2023-03-08T22:45:43.751Z,10.57
2023-03-08T22:48:47.014Z,9.68
2023-03-08T22:51:50.161Z,10.20
2023-03-08T22:54:53.055Z,10.05
2023-03-08T22:57:55.160Z,9.23
2023-03-08T23:00:57.590Z,9.77
2023-03-08T23:04:02.152Z,9.60
2023-03-08T23:10:06.949Z,10.10
2023-03-08T23:13:12.419Z,10.57
2023-03-08T23:16:17.454Z,9.98
2023-03-08T23:19:21.300Z,11.30
2023-03-08T23:22:23.532Z,8.57
2023-03-08T23:25:25.690Z,10.23
2023-03-08T23:28:27.894Z,9.65
2023-03-08T23:31:35.320Z,9.38
2023-03-08T23:34:37.640Z,10.43
2023-03-08T23:37:40.795Z,10.00
2023-03-08T23:40:43.275Z,11.95
2023-03-08T23:43:47.060Z,11.90
2023-03-08T23:46:49.209Z,8.82
2023-03-08T23:49:51.789Z,10.88
2023-03-08T23:52:53.978Z,12.38
2023-03-08T23:55:56.086Z,8.15
2023-03-08T23:59:00.347Z,9.60
